Time;durP1;ratioP1;P1;durP2;ratioP2;P2;SDS_P1;SDS_P2;PMS_P1;PMS_P2;Temp;Humidity;BMP_temperature;BMP_pressure;BME280_temperature;BME280_humidity;BME280_pressure;Samples;Min_cycle;Max_cycle;Signal;HPM_P1;HPM_P2
2023/06/20 00:02:03;;;;;;;18.63;12.40;;;;;;;-144.87;100.00;61487.56;4963907;28;20038;-68
2023/06/20 00:04:29;;;;;;;19.23;12.05;;;;;;;-144.87;100.00;61487.56;4982018;28;20040;-68
2023/06/20 00:06:56;;;;;;;18.38;11.88;;;;;;;-144.87;100.00;61487.56;4978117;28;20038;-68
2023/06/20 00:09:22;;;;;;;16.63;11.68;;;;;;;-144.87;100.00;61487.56;4976888;28;20128;-69
2023/06/20 00:11:48;;;;;;;19.00;12.00;;;;;;;-144.87;100.00;61487.56;4975160;28;20165;-68
2023/06/20 00:14:14;;;;;;;18.33;11.93;;;;;;;-144.87;100.00;61487.56;4991194;28;20522;-68
2023/06/20 00:16:41;;;;;;;17.77;11.63;;;;;;;-144.87;100.00;61487.56;4992934;28;20042;-69
2023/06/20 00:19:08;;;;;;;24.20;12.95;;;;;;;-144.87;100.00;61487.56;4991615;28;20054;-68
2023/06/20 00:21:34;;;;;;;18.75;12.77;;;;;;;-144.87;100.00;61487.56;4974650;28;20058;-67
2023/06/20 00:24:01;;;;;;;21.48;13.35;;;;;;;-144.87;100.00;61487.56;4979150;28;20569;-68
2023/06/20 00:26:27;;;;;;;20.30;13.77;;;;;;;-144.87;100.00;61487.56;4996888;28;20038;-68
2023/06/20 00:28:53;;;;;;;21.05;12.95;;;;;;;-144.87;100.00;61487.56;4974439;28;20100;-68
2023/06/20 00:31:20;;;;;;;19.92;13.07;;;;;;;-144.87;100.00;61487.56;4989317;28;20053;-68
2023/06/20 00:33:48;;;;;;;18.38;12.10;;;;;;;-144.87;100.00;61487.56;4975108;28;20093;-67
2023/06/20 00:36:15;;;;;;;20.33;12.55;;;;;;;-144.87;100.00;61487.56;4977016;28;20053;-69
2023/06/20 00:38:48;;;;;;;20.00;12.52;;;;;;;-144.87;100.00;61487.56;5007815;28;20069;-69
2023/06/20 00:41:17;;;;;;;16.85;11.48;;;;;;;-144.87;100.00;61487.56;4993438;28;20049;-71
2023/06/20 00:43:43;;;;;;;16.60;12.18;;;;;;;-144.87;100.00;61487.56;4976851;28;20042;-69
2023/06/20 00:46:09;;;;;;;17.52;11.38;;;;;;;-144.87;100.00;61487.56;4985283;28;20030;-71
2023/06/20 00:48:36;;;;;;;19.25;11.98;;;;;;;-144.87;100.00;61487.56;4994009;28;20077;-69
2023/06/20 00:51:02;;;;;;;19.98;12.13;;;;;;;-144.87;100.00;61487.56;5011027;28;20133;-68
2023/06/20 00:53:29;;;;;;;16.92;11.35;;;;;;;-144.87;100.00;61487.56;4992549;28;20042;-69
2023/06/20 00:55:59;;;;;;;18.80;11.43;;;;;;;-144.87;100.00;61487.56;4985583;28;20039;-68
2023/06/20 00:58:25;;;;;;;20.33;10.88;;;;;;;-144.87;100.00;61487.56;4977591;28;20034;-69
2023/06/20 01:00:52;;;;;;;17.70;10.93;;;;;;;-144.87;100.00;61487.56;4996572;28;20026;-69
2023/06/20 01:03:19;;;;;;;14.45;11.30;;;;;;;-144.87;100.00;61487.56;5005125;28;20037;-69
2023/06/20 01:06:04;;;;;;;16.45;10.35;;;;;;;-144.87;100.00;61487.56;5010424;28;20042;-69
2023/06/20 01:08:39;;;;;;;16.30;10.90;;;;;;;-144.87;100.00;61487.56;4986516;28;20058;-68
2023/06/20 01:11:49;;;;;;;17.90;10.70;;;;;;;-144.87;100.00;61487.56;4974602;28;20037;-69
2023/06/20 01:14:30;;;;;;;15.38;10.57;;;;;;;-144.87;100.00;61487.56;4994738;28;20037;-68
2023/06/20 01:17:00;;;;;;;16.60;10.82;;;;;;;-144.87;100.00;61487.56;5007383;28;20026;-69
2023/06/20 01:19:47;;;;;;;16.27;9.82;;;;;;;-144.87;100.00;61487.56;4979774;28;20181;-71
2023/06/20 01:22:44;;;;;;;13.25;9.80;;;;;;;-144.87;100.00;61487.56;4993888;28;20041;-69
2023/06/20 01:25:52;;;;;;;15.20;10.55;;;;;;;-144.87;100.00;61487.56;4975603;28;20038;-69
2023/06/20 01:28:33;;;;;;;15.80;10.05;;;;;;;-144.87;100.00;61487.56;4974500;28;20514;-68
2023/06/20 01:31:22;;;;;;;18.08;10.90;;;;;;;-144.87;100.00;61487.56;4989569;28;20058;-68
2023/06/20 01:33:55;;;;;;;15.23;10.73;;;;;;;-144.87;100.00;61487.56;5004477;28;20025;-68
2023/06/20 01:36:22;;;;;;;17.52;10.68;;;;;;;-144.87;100.00;61487.56;4994967;28;20034;-68
2023/06/20 01:38:52;;;;;;;15.85;10.40;;;;;;;-144.87;100.00;61487.56;4973380;28;20623;-69
2023/06/20 01:41:23;;;;;;;16.30;10.90;;;;;;;-144.87;100.00;61487.56;4972652;28;20030;-69
2023/06/20 01:43:50;;;;;;;16.77;11.02;;;;;;;-144.87;100.00;61487.56;4962187;28;20030;-68
2023/06/20 01:46:19;;;;;;;17.65;10.48;;;;;;;-144.87;100.00;61487.56;4986246;28;20066;-70
2023/06/20 01:48:46;;;;;;;15.25;10.75;;;;;;;-144.87;100.00;61487.56;4986610;28;20033;-70
2023/06/20 01:51:13;;;;;;;18.27;11.40;;;;;;;-144.87;100.00;61487.56;4989186;28;20037;-70
2023/06/20 01:53:41;;;;;;;14.48;10.70;;;;;;;-144.87;100.00;61487.56;4988642;28;20440;-69
2023/06/20 01:56:08;;;;;;;18.95;11.02;;;;;;;-144.87;100.00;61487.56;5003270;28;20061;-70
2023/06/20 01:58:35;;;;;;;14.63;10.73;;;;;;;-144.87;100.00;61487.56;4975761;28;20046;-69
2023/06/20 02:01:02;;;;;;;21.98;11.55;;;;;;;-144.87;100.00;61487.56;4981649;28;20029;-69
2023/06/20 02:03:29;;;;;;;16.02;11.80;;;;;;;-144.87;100.00;61487.56;4991065;28;20034;-69
2023/06/20 02:05:57;;;;;;;14.75;11.02;;;;;;;-144.87;100.00;61487.56;4996480;28;20443;-69
2023/06/20 02:08:26;;;;;;;16.80;10.80;;;;;;;-144.87;100.00;61487.56;4983920;28;20368;-69
2023/06/20 02:10:52;;;;;;;16.13;11.38;;;;;;;-144.87;100.00;61487.56;4995527;28;20100;-69
2023/06/20 02:13:21;;;;;;;17.58;11.27;;;;;;;-144.87;100.00;61487.56;5008746;28;20038;-70
2023/06/20 02:15:52;;;;;;;14.55;11.02;;;;;;;-144.87;100.00;61487.56;5011051;28;20049;-69
2023/06/20 02:18:19;;;;;;;;;;;;;;;-144.87;100.00;61487.56;5020503;28;20057;-68
2023/06/20 02:20:49;;;;;;;15.50;10.98;;;;;;;-144.87;100.00;61487.56;5019258;28;19913;-69
2023/06/20 02:23:25;;;;;;;18.42;11.50;;;;;;;-144.87;100.00;61487.56;5012405;28;20045;-69
2023/06/20 02:25:53;;;;;;;15.07;10.32;;;;;;;-144.87;100.00;61487.56;5015429;28;20037;-68
2023/06/20 02:28:19;;;;;;;16.20;10.20;;;;;;;-144.87;100.00;61487.56;5029905;28;20034;-68
2023/06/20 02:30:47;;;;;;;14.57;9.95;;;;;;;-144.87;100.00;61487.56;5009503;28;20034;-69
2023/06/20 02:33:14;;;;;;;15.38;10.68;;;;;;;-144.87;100.00;61487.56;5028752;28;20494;-67
2023/06/20 02:35:42;;;;;;;14.05;9.95;;;;;;;-144.87;100.00;61487.56;5030971;28;20042;-69
2023/06/20 02:38:08;;;;;;;13.70;9.82;;;;;;;-144.87;100.00;61487.56;5023474;28;20029;-69
2023/06/20 02:40:36;;;;;;;17.40;10.43;;;;;;;-144.87;100.00;61487.56;5034232;28;20044;-69
2023/06/20 02:43:03;;;;;;;18.50;11.10;;;;;;;-144.87;100.00;61487.56;5014498;28;20041;-69
2023/06/20 02:45:30;;;;;;;16.48;9.85;;;;;;;-144.87;100.00;61487.56;5004166;28;20177;-68
2023/06/20 02:48:11;;;;;;;14.85;10.88;;;;;;;-144.87;100.00;61487.56;5009610;28;20137;-69
2023/06/20 02:50:46;;;;;;;15.68;9.95;;;;;;;-144.87;100.00;61487.56;5019805;28;20041;-69
2023/06/20 02:53:43;;;;;;;16.77;10.60;;;;;;;-144.87;100.00;61487.56;5016096;28;20021;-69
2023/06/20 02:56:12;;;;;;;17.52;10.13;;;;;;;-144.87;100.00;61487.56;5026753;28;20040;-68
2023/06/20 02:58:41;;;;;;;18.90;10.18;;;;;;;-144.87;100.00;61487.56;5016403;28;20112;-69
2023/06/20 03:01:08;;;;;;;15.95;10.40;;;;;;;-144.87;100.00;61487.56;5007686;28;20116;-69
2023/06/20 03:03:36;;;;;;;20.73;10.38;;;;;;;-144.87;100.00;61487.56;5006885;28;20202;-68
2023/06/20 03:06:06;;;;;;;16.92;11.02;;;;;;;-144.87;100.00;61487.56;5008971;28;20101;-69
2023/06/20 03:08:33;;;;;;;14.13;10.02;;;;;;;-144.87;100.00;61487.56;5027148;28;20095;-69
2023/06/20 03:10:59;;;;;;;14.45;10.90;;;;;;;-144.87;100.00;61487.56;4986492;28;20040;-70
2023/06/20 03:13:26;;;;;;;17.83;11.23;;;;;;;-144.87;100.00;61487.56;4999980;28;20407;-69
2023/06/20 03:15:57;;;;;;;18.52;10.57;;;;;;;-144.87;100.00;61487.56;5018017;28;20053;-70
2023/06/20 03:18:24;;;;;;;13.40;10.32;;;;;;;-144.87;100.00;61487.56;5023858;28;20030;-71
2023/06/20 03:20:52;;;;;;;17.63;10.45;;;;;;;-144.87;100.00;61487.56;5022265;28;20037;-70
2023/06/20 03:23:18;;;;;;;16.67;10.52;;;;;;;-144.87;100.00;61487.56;5019485;28;20092;-69
2023/06/20 03:25:45;;;;;;;14.50;10.10;;;;;;;-144.87;100.00;61487.56;5007901;28;20048;-69
2023/06/20 03:28:12;;;;;;;15.25;10.95;;;;;;;-144.87;100.00;61487.56;5006086;28;20025;-68
2023/06/20 03:30:39;;;;;;;20.45;10.68;;;;;;;-144.87;100.00;61487.56;5015297;28;20120;-69
2023/06/20 03:33:07;;;;;;;19.38;10.70;;;;;;;-144.87;100.00;61487.56;5009049;28;20062;-68
2023/06/20 03:35:34;;;;;;;18.38;10.30;;;;;;;-144.87;100.00;61487.56;5009180;28;20052;-69
2023/06/20 03:38:00;;;;;;;13.48;10.05;;;;;;;-144.87;100.00;61487.56;5010966;28;20129;-69
2023/06/20 03:40:27;;;;;;;14.80;11.00;;;;;;;-144.87;100.00;61487.56;5020934;28;20026;-69
2023/06/20 03:42:53;;;;;;;14.95;10.75;;;;;;;-144.87;100.00;61487.56;5020418;28;20033;-69
2023/06/20 03:45:21;;;;;;;14.93;10.25;;;;;;;-144.87;100.00;61487.56;5009263;28;20049;-68
2023/06/20 03:47:47;;;;;;;16.10;10.82;;;;;;;-144.87;100.00;61487.56;5021477;28;20113;-68
2023/06/20 03:50:14;;;;;;;15.98;10.90;;;;;;;-144.87;100.00;61487.56;5025330;28;20033;-68
2023/06/20 03:52:41;;;;;;;14.68;10.75;;;;;;;-144.87;100.00;61487.56;5018097;28;20471;-67
2023/06/20 03:55:08;;;;;;;17.05;10.68;;;;;;;-144.87;100.00;61487.56;5017418;28;20037;-68
2023/06/20 03:57:35;;;;;;;16.98;10.73;;;;;;;-144.87;100.00;61487.56;5028034;28;20404;-68
2023/06/20 04:00:10;;;;;;;17.30;10.07;;;;;;;-144.87;100.00;61487.56;5008880;28;20026;-68
2023/06/20 04:02:44;;;;;;;21.52;12.70;;;;;;;-144.87;100.00;61487.56;5012690;28;20599;-68
2023/06/20 04:05:12;;;;;;;19.75;10.82;;;;;;;-144.87;100.00;61487.56;5016120;28;20128;-68
2023/06/20 04:07:42;;;;;;;15.15;10.68;;;;;;;-144.87;100.00;61487.56;5010153;28;20062;-68
2023/06/20 04:10:13;;;;;;;19.80;10.30;;;;;;;-144.87;100.00;61487.56;5009285;28;20095;-68
2023/06/20 04:12:41;;;;;;;16.58;10.90;;;;;;;-144.87;100.00;61487.56;5003605;28;20129;-68
2023/06/20 04:15:08;;;;;;;12.95;9.60;;;;;;;-144.87;100.00;61487.56;5024794;28;20072;-69
2023/06/20 04:17:35;;;;;;;14.32;9.73;;;;;;;-144.87;100.00;61487.56;5012488;28;20448;-69
2023/06/20 04:20:07;;;;;;;18.08;10.10;;;;;;;-144.87;100.00;61487.56;4997533;28;20018;-67
2023/06/20 04:22:34;;;;;;;15.25;10.00;;;;;;;-144.87;100.00;61487.56;5016750;28;20036;-68
2023/06/20 04:25:01;;;;;;;13.57;10.52;;;;;;;-144.87;100.00;61487.56;5006378;28;20062;-68
2023/06/20 04:27:27;;;;;;;16.90;10.05;;;;;;;-144.87;100.00;61487.56;5027706;28;20052;-69
2023/06/20 04:29:57;;;;;;;16.77;10.32;;;;;;;-144.87;100.00;61487.56;5012603;28;20038;-69
2023/06/20 04:32:24;;;;;;;15.85;10.35;;;;;;;-144.87;100.00;61487.56;4998592;28;20088;-68
2023/06/20 04:34:52;;;;;;;15.15;10.35;;;;;;;-144.87;100.00;61487.56;5018254;28;20560;-70
2023/06/20 04:37:20;;;;;;;14.07;10.77;;;;;;;-144.87;100.00;61487.56;5011407;28;20030;-69
2023/06/20 04:39:47;;;;;;;16.70;10.27;;;;;;;-144.87;100.00;61487.56;5022643;28;20080;-68
2023/06/20 04:42:13;;;;;;;16.23;9.50;;;;;;;-144.87;100.00;61487.56;5008177;28;20030;-69
2023/06/20 04:44:39;;;;;;;21.27;10.88;;;;;;;-144.87;100.00;61487.56;5013311;28;20030;-69
2023/06/20 04:47:06;;;;;;;13.20;9.68;;;;;;;-144.87;100.00;61487.56;5022436;28;20037;-70
2023/06/20 04:49:32;;;;;;;13.82;10.40;;;;;;;-144.87;100.00;61487.56;5020350;28;20822;-69
2023/06/20 04:51:58;;;;;;;17.27;10.38;;;;;;;-144.87;100.00;61487.56;5010840;28;20038;-68
2023/06/20 04:54:25;;;;;;;17.10;10.60;;;;;;;-144.87;100.00;61487.56;5016380;28;20038;-69
2023/06/20 04:56:51;;;;;;;17.02;10.13;;;;;;;-144.87;100.00;61487.56;5006979;28;20657;-69
2023/06/20 04:59:18;;;;;;;16.13;11.23;;;;;;;-144.87;100.00;61487.56;5004753;28;20041;-68
2023/06/20 05:01:50;;;;;;;17.48;10.63;;;;;;;-144.87;100.00;61487.56;5005731;28;20034;-67
2023/06/20 05:04:20;;;;;;;16.50;10.93;;;;;;;-144.87;100.00;61487.56;4989985;28;20054;-69
2023/06/20 05:06:46;;;;;;;17.73;11.10;;;;;;;-144.87;100.00;61487.56;5022205;28;20654;-69
2023/06/20 05:09:13;;;;;;;18.33;10.85;;;;;;;-144.87;100.00;61487.56;5008557;28;20371;-72
2023/06/20 05:11:40;;;;;;;15.60;11.38;;;;;;;-144.87;100.00;61487.56;5025423;28;20042;-71
2023/06/20 05:14:06;;;;;;;17.00;11.00;;;;;;;-144.87;100.00;61487.56;5014718;28;20124;-68
2023/06/20 05:16:32;;;;;;;16.33;10.95;;;;;;;-144.87;100.00;61487.56;5029929;28;20053;-70
2023/06/20 05:18:59;;;;;;;15.77;10.98;;;;;;;-144.87;100.00;61487.56;5030667;28;20388;-70
2023/06/20 05:21:25;;;;;;;16.70;11.30;;;;;;;-144.87;100.00;61487.56;5014785;28;20045;-69
2023/06/20 05:23:51;;;;;;;20.30;11.40;;;;;;;-144.87;100.00;61487.56;5016459;28;20038;-71
2023/06/20 05:26:17;;;;;;;19.77;12.07;;;;;;;-144.87;100.00;61487.56;5012538;28;20087;-69
2023/06/20 05:28:44;;;;;;;19.08;11.75;;;;;;;-144.87;100.00;61487.56;5018221;28;20131;-70
2023/06/20 05:31:10;;;;;;;16.58;11.40;;;;;;;-144.87;100.00;61487.56;5007786;28;20065;-68
2023/06/20 05:33:37;;;;;;;19.05;11.38;;;;;;;-144.87;100.00;61487.56;5008414;28;20038;-71
2023/06/20 05:36:04;;;;;;;20.23;11.57;;;;;;;-144.87;100.00;61487.56;5014525;28;20407;-71
2023/06/20 05:38:32;;;;;;;49.63;13.35;;;;;;;-144.87;100.00;61487.56;5016101;28;20515;-70
2023/06/20 05:40:59;;;;;;;49.22;12.45;;;;;;;-144.87;100.00;61487.56;5022133;28;20161;-71
2023/06/20 05:43:26;;;;;;;34.78;12.35;;;;;;;-144.87;100.00;61487.56;5012037;28;20121;-69
2023/06/20 05:45:52;;;;;;;45.00;12.75;;;;;;;-144.87;100.00;61487.56;5002021;28;20105;-69
2023/06/20 05:48:18;;;;;;;27.63;11.90;;;;;;;-144.87;100.00;61487.56;5024504;28;20034;-70
2023/06/20 05:50:44;;;;;;;38.40;12.75;;;;;;;-144.87;100.00;61487.56;5027388;28;20042;-68
2023/06/20 05:53:11;;;;;;;41.33;12.82;;;;;;;-144.87;100.00;61487.56;5022309;28;20114;-69
2023/06/20 05:55:39;;;;;;;35.55;12.20;;;;;;;-144.87;100.00;61487.56;5025148;28;20129;-69
2023/06/20 05:58:07;;;;;;;20.33;11.52;;;;;;;-144.87;100.00;61487.56;5019504;28;20045;-70
2023/06/20 06:00:33;;;;;;;19.48;11.07;;;;;;;-144.87;100.00;61487.56;5015301;28;20045;-69
2023/06/20 06:03:00;;;;;;;19.50;10.90;;;;;;;-144.87;100.00;61487.56;5019076;28;20053;-69
2023/06/20 06:05:26;;;;;;;23.67;11.00;;;;;;;-144.87;100.00;61487.56;5023282;28;20042;-69
2023/06/20 06:07:52;;;;;;;22.42;10.68;;;;;;;-144.87;100.00;61487.56;5026408;28;20042;-70
2023/06/20 06:10:19;;;;;;;19.85;10.57;;;;;;;-144.87;100.00;61487.56;5026342;28;20029;-70
2023/06/20 06:12:45;;;;;;;19.17;10.68;;;;;;;-144.87;100.00;61487.56;5029252;28;20042;-69
2023/06/20 06:15:12;;;;;;;14.45;10.25;;;;;;;-144.87;100.00;61487.56;5027624;28;20941;-68
2023/06/20 06:17:39;;;;;;;14.30;10.43;;;;;;;-144.87;100.00;61487.56;5020108;28;20038;-69
2023/06/20 06:20:10;;;;;;;14.95;10.45;;;;;;;-144.87;100.00;61487.56;5026373;28;20064;-71
2023/06/20 06:22:36;;;;;;;17.80;11.10;;;;;;;-144.87;100.00;61487.56;5027995;28;20048;-68
2023/06/20 06:25:02;;;;;;;13.88;10.65;;;;;;;-144.87;100.00;61487.56;5025587;28;20042;-69
2023/06/20 06:27:28;;;;;;;15.05;10.43;;;;;;;-144.87;100.00;61487.56;5032135;28;20106;-69
2023/06/20 06:29:55;;;;;;;13.18;10.18;;;;;;;-144.87;100.00;61487.56;5022447;28;20091;-68
2023/06/20 06:32:21;;;;;;;16.45;10.85;;;;;;;-144.87;100.00;61487.56;5022282;28;20071;-71
2023/06/20 06:34:49;;;;;;;12.43;10.60;;;;;;;-144.87;100.00;61487.56;5013019;28;20036;-70
2023/06/20 06:37:16;;;;;;;14.32;9.85;;;;;;;-144.87;100.00;61487.56;5024557;28;20041;-69
2023/06/20 06:39:42;;;;;;;18.73;10.88;;;;;;;-144.87;100.00;61487.56;5017619;28;20032;-69
2023/06/20 06:42:09;;;;;;;15.65;9.75;;;;;;;-144.87;100.00;61487.56;5018807;28;20029;-70
2023/06/20 06:44:35;;;;;;;21.55;12.13;;;;;;;-144.87;100.00;61487.56;5027969;28;20044;-70
2023/06/20 06:47:01;;;;;;;18.00;10.90;;;;;;;-144.87;100.00;61487.56;5004889;28;21777;-70
2023/06/20 06:49:28;;;;;;;16.77;10.63;;;;;;;-144.87;100.00;61487.56;5010572;28;20033;-70
2023/06/20 06:51:56;;;;;;;16.25;10.73;;;;;;;-144.87;100.00;61487.56;5025270;28;20033;-70
2023/06/20 06:54:22;;;;;;;18.42;11.40;;;;;;;-144.87;100.00;61487.56;5020163;28;20052;-70
2023/06/20 06:56:49;;;;;;;16.42;10.50;;;;;;;-144.87;100.00;61487.56;5021135;28;20054;-70
2023/06/20 06:59:15;;;;;;;18.65;11.10;;;;;;;-144.87;100.00;61487.56;5022693;28;20038;-70
2023/06/20 07:01:41;;;;;;;14.43;11.02;;;;;;;-144.87;100.00;61487.56;5018659;28;20041;-70
2023/06/20 07:04:07;;;;;;;15.70;11.85;;;;;;;-144.87;100.00;61487.56;5028860;28;20051;-70
2023/06/20 07:06:34;;;;;;;16.55;10.95;;;;;;;-144.87;100.00;61487.56;5023643;28;20050;-69
2023/06/20 07:09:00;;;;;;;15.65;11.82;;;;;;;-144.87;100.00;61487.56;5030955;28;20083;-70
2023/06/20 07:11:27;;;;;;;13.90;11.23;;;;;;;-144.87;100.00;61487.56;5017012;28;20033;-70
2023/06/20 07:13:53;;;;;;;15.18;11.30;;;;;;;-144.87;100.00;61487.56;5019259;28;20120;-70
2023/06/20 07:16:19;;;;;;;15.82;12.05;;;;;;;-144.87;100.00;61487.56;5000778;28;20073;-69
2023/06/20 07:18:46;;;;;;;16.70;11.95;;;;;;;-144.87;100.00;61487.56;5002785;28;20510;-70
2023/06/20 07:21:12;;;;;;;19.52;11.75;;;;;;;-144.87;100.00;61487.56;4982911;28;20041;-69
2023/06/20 07:23:38;;;;;;;16.05;11.90;;;;;;;-144.87;100.00;61487.56;4978859;28;20038;-69
2023/06/20 07:26:05;;;;;;;16.13;12.60;;;;;;;-144.87;100.00;61487.56;4995279;28;20034;-69
2023/06/20 07:28:31;;;;;;;15.93;12.70;;;;;;;-144.87;100.00;61487.56;4986648;28;20101;-69
2023/06/20 07:30:58;;;;;;;23.23;13.07;;;;;;;-144.87;100.00;61487.56;4987390;28;20093;-70
2023/06/20 07:33:24;;;;;;;14.65;12.05;;;;;;;-144.87;100.00;61487.56;5001959;28;20034;-70
2023/06/20 07:35:50;;;;;;;14.18;11.57;;;;;;;-144.87;100.00;61487.56;4989731;28;20053;-70
2023/06/20 07:38:16;;;;;;;17.70;12.05;;;;;;;-144.87;100.00;61487.56;5001555;28;20046;-70
2023/06/20 07:40:43;;;;;;;18.75;12.52;;;;;;;-144.87;100.00;61487.56;5007043;28;20018;-71
2023/06/20 07:43:09;;;;;;;17.73;11.63;;;;;;;-144.87;100.00;61487.56;5006028;28;20030;-70
2023/06/20 07:45:36;;;;;;;23.83;11.82;;;;;;;-144.87;100.00;61487.56;5008931;28;20049;-70
2023/06/20 07:48:03;;;;;;;17.17;11.30;;;;;;;-144.87;100.00;61487.56;4999305;28;20053;-71
2023/06/20 07:50:30;;;;;;;24.52;14.38;;;;;;;-144.87;100.00;61487.56;4996573;28;20355;-71
2023/06/20 07:52:56;;;;;;;23.90;12.73;;;;;;;-144.87;100.00;61487.56;5010316;28;20034;-69
2023/06/20 07:55:23;;;;;;;20.05;11.80;;;;;;;-144.87;100.00;61487.56;4999647;28;20044;-72
2023/06/20 07:57:49;;;;;;;18.48;12.07;;;;;;;-144.87;100.00;61487.56;5017563;28;20034;-72
2023/06/20 08:00:16;;;;;;;16.70;13.52;;;;;;;-144.87;100.00;61487.56;4998728;28;20038;-71
2023/06/20 08:02:42;;;;;;;17.63;13.00;;;;;;;-144.87;100.00;61487.56;5008285;28;20065;-71
2023/06/20 08:05:08;;;;;;;19.02;12.63;;;;;;;-144.87;100.00;61487.56;4993673;28;20093;-71
2023/06/20 08:07:35;;;;;;;16.83;12.13;;;;;;;-144.87;100.00;61487.56;4994990;28;20058;-70
2023/06/20 08:10:02;;;;;;;20.80;12.05;;;;;;;-144.87;100.00;61487.56;4990876;28;20129;-70
2023/06/20 08:12:29;;;;;;;22.30;12.02;;;;;;;-144.87;100.00;61487.56;4984034;28;20044;-68
2023/06/20 08:14:56;;;;;;;16.90;12.18;;;;;;;-144.87;100.00;61487.56;5001951;28;20415;-69
2023/06/20 08:17:22;;;;;;;15.77;11.88;;;;;;;-144.87;100.00;61487.56;5018599;28;20026;-70
2023/06/20 08:19:48;;;;;;;19.77;13.07;;;;;;;-144.87;100.00;61487.56;5020051;28;20038;-70
2023/06/20 08:22:14;;;;;;;20.50;12.93;;;;;;;-144.87;100.00;61487.56;5017403;28;20053;-71
2023/06/20 08:24:41;;;;;;;15.02;12.68;;;;;;;-144.87;100.00;61487.56;5014182;28;20034;-68
2023/06/20 08:27:07;;;;;;;16.08;12.23;;;;;;;-144.87;100.00;61487.56;5014326;28;20411;-69
2023/06/20 08:29:34;;;;;;;18.40;13.32;;;;;;;-144.87;100.00;61487.56;5011756;28;20030;-70
2023/06/20 08:32:01;;;;;;;15.60;12.13;;;;;;;-144.87;100.00;61487.56;5011211;28;20116;-70
2023/06/20 08:34:27;;;;;;;16.92;12.95;;;;;;;-144.87;100.00;61487.56;5025173;28;20029;-69
2023/06/20 08:36:53;;;;;;;15.30;12.93;;;;;;;-144.87;100.00;61487.56;5046368;28;20576;-71
2023/06/20 08:39:21;;;;;;;20.05;13.52;;;;;;;-144.87;100.00;61487.56;5031218;28;20045;-69
2023/06/20 08:41:50;;;;;;;17.13;12.35;;;;;;;-144.87;100.00;61487.56;5029760;28;20053;-69
2023/06/20 08:44:17;;;;;;;17.38;12.88;;;;;;;-144.87;100.00;61487.56;5022507;28;20135;-70
2023/06/20 08:46:45;;;;;;;15.80;11.80;;;;;;;-144.87;100.00;61487.56;5027784;28;20071;-70
2023/06/20 08:49:14;;;;;;;14.00;11.82;;;;;;;-144.87;100.00;61487.56;5030320;28;20045;-72
2023/06/20 08:51:44;;;;;;;11.30;9.93;;;;;;;-144.87;100.00;61487.56;5016664;28;20043;-70
2023/06/20 08:54:13;;;;;;;13.60;11.20;;;;;;;-144.87;100.00;61487.56;5017512;28;20061;-70
2023/06/20 08:56:40;;;;;;;17.52;12.60;;;;;;;-144.87;100.00;61487.56;5034998;28;20041;-69
2023/06/20 08:59:06;;;;;;;17.60;12.60;;;;;;;-144.87;100.00;61487.56;5037164;28;20549;-71
2023/06/20 09:01:35;;;;;;;19.13;12.32;;;;;;;-144.87;100.00;61487.56;5034706;28;20037;-69
2023/06/20 09:04:02;;;;;;;12.77;11.05;;;;;;;-144.87;100.00;61487.56;5021947;28;20522;-70
2023/06/20 09:06:37;;;;;;;16.02;12.20;;;;;;;-144.87;100.00;61487.56;4993235;28;20052;-70
2023/06/20 09:09:15;;;;;;;15.57;11.18;;;;;;;-144.87;100.00;61487.56;5009474;28;20034;-71
2023/06/20 09:11:48;;;;;;;14.65;11.18;;;;;;;-144.87;100.00;61487.56;5017000;28;20120;-70
2023/06/20 09:14:15;;;;;;;18.23;11.43;;;;;;;-144.87;100.00;61487.56;5008137;28;20503;-71
2023/06/20 09:16:42;;;;;;;17.33;10.38;;;;;;;-144.87;100.00;61487.56;4973786;28;20053;-71
2023/06/20 09:19:09;;;;;;;10.90;8.20;;;;;;;-144.87;100.00;61487.56;4973486;28;20076;-70
2023/06/20 09:21:39;;;;;;;12.68;9.48;;;;;;;-144.87;100.00;61487.56;4973966;28;20180;-71
2023/06/20 09:24:06;;;;;;;12.45;7.50;;;;;;;-144.87;100.00;61487.56;4983598;28;20045;-71
2023/06/20 09:26:33;;;;;;;11.55;8.55;;;;;;;-144.87;100.00;61487.56;5001848;28;20038;-71
2023/06/20 09:29:11;;;;;;;8.85;6.90;;;;;;;-144.87;100.00;61487.56;4996465;28;20544;-70
2023/06/20 09:31:48;;;;;;;11.25;5.45;;;;;;;-144.87;100.00;61487.56;4997157;28;20130;-70
2023/06/20 09:34:19;;;;;;;8.80;5.63;;;;;;;-144.87;100.00;61487.56;4996890;28;20072;-71
2023/06/20 09:36:46;;;;;;;9.02;5.50;;;;;;;-144.87;100.00;61487.56;4978627;28;20057;-70
2023/06/20 09:39:17;;;;;;;7.90;5.18;;;;;;;-144.87;100.00;61487.56;4974333;28;20034;-71
2023/06/20 09:41:44;;;;;;;8.93;6.43;;;;;;;-144.87;100.00;61487.56;5009124;28;20041;-71
2023/06/20 09:44:12;;;;;;;7.75;5.72;;;;;;;-144.87;100.00;61487.56;4989217;28;20395;-70
2023/06/20 09:46:38;;;;;;;7.57;5.80;;;;;;;-144.87;100.00;61487.56;5000541;28;20124;-70
2023/06/20 09:49:05;;;;;;;11.40;6.00;;;;;;;-144.87;100.00;61487.56;4976184;28;20053;-71
2023/06/20 09:51:34;;;;;;;6.60;5.90;;;;;;;-144.87;100.00;61487.56;4987417;28;20380;-71
2023/06/20 09:54:05;;;;;;;7.03;5.55;;;;;;;-144.87;100.00;61487.56;4979718;28;20035;-70
2023/06/20 09:56:40;;;;;;;6.80;5.32;;;;;;;-144.87;100.00;61487.56;4990871;28;20034;-70
2023/06/20 09:59:08;;;;;;;8.05;6.32;;;;;;;-144.87;100.00;61487.56;4986949;28;20034;-71
2023/06/20 10:01:35;;;;;;;8.48;5.95;;;;;;;-144.87;100.00;61487.56;4974994;28;20030;-70
2023/06/20 10:04:01;;;;;;;10.88;6.45;;;;;;;-144.87;100.00;61487.56;4974551;28;20050;-71
2023/06/20 10:06:28;;;;;;;12.15;7.28;;;;;;;-144.87;100.00;61487.56;5005380;28;20050;-70
2023/06/20 10:08:54;;;;;;;8.75;7.18;;;;;;;-144.87;100.00;61487.56;4997904;28;20041;-70
2023/06/20 10:11:22;;;;;;;11.50;8.93;;;;;;;-144.87;100.00;61487.56;4998641;28;20121;-70
2023/06/20 10:13:48;;;;;;;11.50;8.43;;;;;;;-144.87;100.00;61487.56;4983327;28;20040;-70
2023/06/20 10:16:14;;;;;;;11.07;8.73;;;;;;;-144.87;100.00;61487.56;5033725;28;20051;-70
2023/06/20 10:18:41;;;;;;;9.40;8.40;;;;;;;-144.87;100.00;61487.56;5048568;28;20041;-69
2023/06/20 10:21:12;;;;;;;15.38;9.38;;;;;;;-144.87;100.00;61487.56;5028549;28;20120;-69
2023/06/20 10:23:38;;;;;;;11.30;8.98;;;;;;;-144.87;100.00;61487.56;5028377;28;20033;-70
2023/06/20 10:26:08;;;;;;;13.70;9.95;;;;;;;-144.87;100.00;61487.56;5012078;28;20464;-70
2023/06/20 10:28:38;;;;;;;10.82;8.05;;;;;;;-144.87;100.00;61487.56;5030252;28;20137;-70
2023/06/20 10:31:05;;;;;;;11.70;8.57;;;;;;;-144.87;100.00;61487.56;5027796;28;20029;-72
2023/06/20 10:33:36;;;;;;;9.90;8.13;;;;;;;-144.87;100.00;61487.56;5050831;28;20066;-69
2023/06/20 10:36:07;;;;;;;10.40;9.30;;;;;;;-144.87;100.00;61487.56;5026644;28;20057;-69
2023/06/20 10:38:37;;;;;;;14.77;8.25;;;;;;;-144.87;100.00;61487.56;5028818;28;20129;-70
2023/06/20 10:41:21;;;;;;;12.20;7.70;;;;;;;-144.87;100.00;61487.56;5017523;28;20100;-70
2023/06/20 10:44:00;;;;;;;11.73;8.75;;;;;;;-144.87;100.00;61487.56;5026365;28;20037;-70
2023/06/20 10:46:36;;;;;;;8.75;7.20;;;;;;;-144.87;100.00;61487.56;5019856;28;20129;-70
2023/06/20 10:49:03;;;;;;;33.60;7.88;;;;;;;-144.87;100.00;61487.56;5024499;28;20034;-71
2023/06/20 10:51:30;;;;;;;9.95;8.82;;;;;;;-144.87;100.00;61487.56;5020874;28;20033;-71
2023/06/20 10:54:12;;;;;;;13.35;9.10;;;;;;;-144.87;100.00;61487.56;5016874;28;20046;-71
2023/06/20 10:56:38;;;;;;;11.32;8.95;;;;;;;-144.87;100.00;61487.56;5030003;28;20491;-71
2023/06/20 10:59:11;;;;;;;9.65;7.20;;;;;;;-144.87;100.00;61487.56;5022373;28;20034;-70
2023/06/20 11:01:38;;;;;;;8.45;7.43;;;;;;;-144.87;100.00;61487.56;5022577;28;20498;-70
2023/06/20 11:04:11;;;;;;;10.02;8.02;;;;;;;-144.87;100.00;61487.56;5030145;28;20060;-69